Time;durP1;ratioP1;P1;durP2;ratioP2;P2;SDS_P1;SDS_P2;PMS_P1;PMS_P2;Temp;Humidity;BMP_temperature;BMP_pressure;BME280_temperature;BME280_humidity;BME280_pressure;Samples;Min_cycle;Max_cycle;Signal;HPM_P1;HPM_P2
2021/04/28 00:00:41;;;;;;;;;;;;;;;;;;7278204;40;1928;-23
2021/04/28 00:06:01;;;;;;;;;;;;;;;;;;7278404;40;973;-23
2021/04/28 00:11:21;;;;;;;;;;;;;;;;;;7278182;40;1140;-22
2021/04/28 00:16:42;;;;;;;;;;;;;;;;;;7277385;40;1430;-24
2021/04/28 00:22:02;;;;;;;;;;;;;;;;;;7278111;40;1886;-24
2021/04/28 00:27:22;;;;;;;;;;;;;;;;;;7278029;40;971;-24
2021/04/28 00:32:53;;;;;;;;;;;;;;;;;;7312593;40;1091;-24
2021/04/28 00:38:15;;;;;;;;;;;;;;;;;;7323462;40;1117;-24
2021/04/28 00:43:36;;;;;;;;;;;;;;;;;;7317935;40;1882;-23
2021/04/28 00:48:57;;;;;;;;;;;;;;;;;;7323322;40;1159;-24
2021/04/28 00:54:18;;;;;;;;;;;;;;;;;;7309701;40;1284;-24
2021/04/28 00:59:39;;;;;;;;;;;;;;;;;;7296644;40;1920;-24
2021/04/28 01:05:01;;;;;;;;;;;;;;;;;;7297737;40;966;-24
2021/04/28 01:10:29;;;;;;;;;;;;;;;;;;7303873;40;974;-24
2021/04/28 01:15:50;;;;;;;;;;;;;;;;;;7288927;40;1083;-24
2021/04/28 01:21:11;;;;;;;;;;;;;;;;;;7300093;40;1863;-24
2021/04/28 01:26:32;;;;;;;;;;;;;;;;;;7317701;40;1134;-24
2021/04/28 01:31:55;;;;;;;;;;;;;;;;;;7315820;40;1087;-23
2021/04/28 01:37:16;;;;;;;;;;;;;;;;;;7323476;40;990;-24
2021/04/28 01:42:41;;;;;;;;;;;;;;;;;;7317474;40;1882;-23
2021/04/28 01:48:04;;;;;;;;;;;;;;;;;;7317540;40;975;-23
2021/04/28 01:53:27;;;;;;;;;;;;;;;;;;7315872;40;1042;-25
2021/04/28 01:58:48;;;;;;;;;;;;;;;;;;7297091;40;1015;-23
2021/04/28 02:04:18;;;;;;;;;;;;;;;;;;7302744;40;1919;-23
2021/04/28 02:09:39;;;;;;;;;;;;;;;;;;7296744;40;1360;-23
2021/04/28 02:15:08;;;;;;;;;;;;;;;;;;7302832;40;1067;-23
2021/04/28 02:20:37;;;;;;;;;;;;;;;;;;7302565;40;1882;-23
2021/04/28 02:26:20;;;;;;;;;;;;;;;;;;7296569;40;1573;-24
2021/04/28 02:31:41;;;;;;;;;;;;;;;;;;7311875;40;1106;-23
2021/04/28 02:37:05;;;;;;;;;;;;;;;;;;7336217;40;1153;-23
2021/04/28 02:43:00;;;;;;;;;;;;;;;;;;7339583;40;1890;-23
2021/04/28 02:48:21;;;;;;;;;;;;;;;;;;7339100;40;1012;-24
2021/04/28 02:54:02;;;;;;;;;;;;;;;;;;7337829;40;1400;-24
2021/04/28 02:59:25;;;;;;;;;;;;;;;;;;7319239;40;1515;-24
2021/04/28 03:04:46;;;;;;;;;;;;;;;;;;7317688;40;1199;-23
2021/04/28 03:10:27;;;;;;;;;;;;;;;;;;7314309;40;1091;-23
2021/04/28 03:15:49;;;;;;;;;;;;;;;;;;7319243;40;1114;-22
2021/04/28 03:21:11;;;;;;;;;;;;;;;;;;7318754;40;1917;-23
2021/04/28 03:26:34;;;;;;;;;;;;;;;;;;7339556;40;934;-22
2021/04/28 03:31:55;;;;;;;;;;;;;;;;;;7337460;40;1218;-24
2021/04/28 03:37:16;;;;;;;;;;;;;;;;;;7338722;40;979;-23
2021/04/28 03:42:38;;;;;;;;;;;;;;;;;;7338891;40;1874;-23
2021/04/28 03:48:13;;;;;;;;;;;;;;;;;;7338135;40;1081;-24
2021/04/28 03:53:34;;;;;;;;;;;;;;;;;;7323223;40;1064;-24
2021/04/28 03:58:55;;;;;;;;;;;;;;;;;;7318754;40;1358;-23
2021/04/28 04:04:15;;;;;;;;;;;;;;;;;;7318602;40;1877;-24
2021/04/28 04:09:54;;;;;;;;;;;;;;;;;;7318612;40;1017;-24
2021/04/28 04:15:14;;;;;;;;;;;;;;;;;;7318388;40;1420;-23
2021/04/28 04:20:34;;;;;;;;;;;;;;;;;;7310786;40;1928;-24
2021/04/28 04:26:25;;;;;;;;;;;;;;;;;;7322720;40;1059;-22
2021/04/28 04:31:54;;;;;;;;;;;;;;;;;;7338455;40;1208;-23
2021/04/28 04:37:34;;;;;;;;;;;;;;;;;;7338476;40;976;-24
2021/04/28 04:43:25;;;;;;;;;;;;;;;;;;7338410;40;1936;-24
2021/04/28 04:49:07;;;;;;;;;;;;;;;;;;7337211;40;1571;-23
2021/04/28 04:54:28;;;;;;;;;;;;;;;;;;7089512;40;10000636;-23
2021/04/28 04:59:48;;;;;;;;;;;;;;;;;;7324737;40;1895;-24
2021/04/28 05:05:10;;;;;;;;;;;;;;;;;;7322294;40;1220;-24
2021/04/28 05:10:30;;;;;;;;;;;;;;;;;;7334891;40;1069;-24
2021/04/28 05:15:51;;;;;;;;;;;;;;;;;;7335258;40;1276;-23
2021/04/28 05:21:25;;;;;;;;;;;;;;;;;;7334608;40;1874;-24
2021/04/28 05:26:47;;;;;;;;;;;;;;;;;;7319167;40;1004;-23
2021/04/28 05:32:08;;;;;;;;;;;;;;;;;;7333888;40;1535;-23
2021/04/28 05:37:28;;;;;;;;;;;;;;;;;;7334657;40;1251;-23
2021/04/28 05:42:49;;;;;;;;;;;;;;;;;;7334412;40;1886;-23
2021/04/28 05:48:10;;;;;;;;;;;;;;;;;;7333153;40;1088;-25
2021/04/28 05:53:30;;;;;;;;;;;;;;;;;;7326594;40;2782;-24
2021/04/28 05:58:51;;;;;;;;;;;;;;;;;;7314565;40;994;-24
2021/04/28 06:04:11;;;;;;;;;;;;;;;;;;7314198;40;1934;-24
2021/04/28 06:09:46;;;;;;;;;;;;;;;;;;7313938;40;1048;-23
2021/04/28 06:15:07;;;;;;;;;;;;;;;;;;7316844;40;922;-23
2021/04/28 06:20:28;;;;;;;;;;;;;;;;;;7320245;40;2046;-22
2021/04/28 06:25:49;;;;;;;;;;;;;;;;;;7338206;40;1125;-23
2021/04/28 06:31:09;;;;;;;;;;;;;;;;;;7340091;40;1415;-24
2021/04/28 06:36:30;;;;;;;;;;;;;;;;;;7340826;40;988;-24
2021/04/28 06:41:50;;;;;;;;;;;;;;;;;;7340410;40;1871;-24
2021/04/28 06:47:10;;;;;;;;;;;;;;;;;;7340642;40;1353;-24
2021/04/28 06:52:31;;;;;;;;;;;;;;;;;;7340380;40;974;-24
2021/04/28 06:57:54;;;;;;;;;;;;;;;;;;7323807;40;2442;-23
2021/04/28 07:03:16;;;;;;;;;;;;;;;;;;7331404;40;2952;-23
2021/04/28 07:08:37;;;;;;;;;;;;;;;;;;7334467;40;1259;-24
2021/04/28 07:13:58;;;;;;;;;;;;;;;;;;7334599;40;1279;-23
2021/04/28 07:19:18;;;;;;;;;;;;;;;;;;7342893;40;1304;-24
2021/04/28 07:24:39;;;;;;;;;;;;;;;;;;7333594;40;1898;-24
2021/04/28 07:29:59;;;;;;;;;;;;;;;;;;7318578;40;1448;-23
2021/04/28 07:35:22;;;;;;;;;;;;;;;;;;7318778;40;1048;-24
2021/04/28 07:40:42;;;;;;;;;;;;;;;;;;7318611;40;1894;-23
2021/04/28 07:46:03;;;;;;;;;;;;;;;;;;7318684;40;1029;-23
2021/04/28 07:51:24;;;;;;;;;;;;;;;;;;7318678;40;1217;-23
2021/04/28 07:56:44;;;;;;;;;;;;;;;;;;7318222;40;1454;-24
2021/04/28 08:02:05;;;;;;;;;;;;;;;;;;7318543;40;1938;-23
2021/04/28 08:07:26;;;;;;;;;;;;;;;;;;7315191;40;1549;-23
2021/04/28 08:13:01;;;;;;;;;;;;;;;;;;7317564;40;1428;-25
2021/04/28 08:18:22;;;;;;;;;;;;;;;;;;7316575;40;1144;-24
2021/04/28 08:23:43;;;;;;;;;;;;;;;;;;7316569;40;1873;-22
2021/04/28 08:29:17;;;;;;;;;;;;;;;;;;7318208;40;1297;-24
2021/04/28 08:34:38;;;;;;;;;;;;;;;;;;7325203;40;1042;-24
2021/04/28 08:39:59;;;;;;;;;;;;;;;;;;7335900;40;1292;-24
2021/04/28 08:45:19;;;;;;;;;;;;;;;;;;7337891;40;1235;-23
2021/04/28 08:50:40;;;;;;;;;;;;;;;;;;7337751;40;920;-23
2021/04/28 08:56:06;;;;;;;;;;;;;;;;;;7329201;40;1429;-23
2021/04/28 09:01:27;;;;;;;;;;;;;;;;;;7307237;40;1874;-23
2021/04/28 09:06:47;;;;;;;;;;;;;;;;;;7315131;40;965;-23
2021/04/28 09:12:10;;;;;;;;;;;;;;;;;;7307364;40;1035;-23
2021/04/28 09:17:48;;;;;;;;;;;;;;;;;;7314009;40;1265;-24
2021/04/28 09:23:35;;;;;;;;;;;;;;;;;;7316128;40;1883;-24
2021/04/28 09:29:18;;;;;;;;;;;;;;;;;;7336968;40;1729;-24
2021/04/28 09:34:39;;;;;;;;;;;;;;;;;;7337530;40;1162;-24
2021/04/28 09:40:02;;;;;;;;;;;;;;;;;;7337150;40;990;-25
2021/04/28 09:45:40;;;;;;;;;;;;;;;;;;7336035;40;978;-24
2021/04/28 09:51:07;;;;;;;;;;;;;;;;;;7336966;40;1015;-23
2021/04/28 09:56:27;;;;;;;;;;;;;;;;;;7328530;40;1034;-23
2021/04/28 10:02:02;;;;;;;;;;;;;;;;;;7315314;40;1870;-23
2021/04/28 10:07:26;;;;;;;;;;;;;;;;;;7317062;40;966;-23
2021/04/28 10:12:47;;;;;;;;;;;;;;;;;;7307423;40;1590;-23
2021/04/28 10:18:08;;;;;;;;;;;;;;;;;;7316357;40;1424;-24
2021/04/28 10:23:29;;;;;;;;;;;;;;;;;;7316615;40;1866;-23
2021/04/28 10:28:49;;;;;;;;;;;;;;;;;;7320979;40;1126;-24
2021/04/28 10:34:11;;;;;;;;;;;;;;;;;;7318766;40;1172;-24
2021/04/28 10:39:35;;;;;;;;;;;;;;;;;;7336565;40;1019;-24
2021/04/28 10:45:18;;;;;;;;;;;;;;;;;;7336554;40;1883;-23
2021/04/28 10:50:45;;;;;;;;;;;;;;;;;;7336239;40;1138;-24
2021/04/28 10:56:09;;;;;;;;;;;;;;;;;;7329847;40;1037;-23
2021/04/28 11:01:30;;;;;;;;;;;;;;;;;;7316568;40;1875;-24
2021/04/28 11:06:52;;;;;;;;;;;;;;;;;;7318516;40;1267;-24
2021/04/28 11:12:12;;;;;;;;;;;;;;;;;;7319563;40;1269;-24
2021/04/28 11:17:32;;;;;;;;;;;;;;;;;;7319055;40;1297;-24
2021/04/28 11:22:53;;;;;;;;;;;;;;;;;;7317369;40;1867;-23
2021/04/28 11:28:13;;;;;;;;;;;;;;;;;;7333791;40;973;-23
2021/04/28 11:33:34;;;;;;;;;;;;;;;;;;7337118;40;1081;-23
2021/04/28 11:38:54;;;;;;;;;;;;;;;;;;7337719;40;1600;-24
2021/04/28 11:44:17;;;;;;;;;;;;;;;;;;7337406;40;1930;-23
2021/04/28 11:49:41;;;;;;;;;;;;;;;;;;7337641;40;1011;-23
2021/04/28 11:55:02;;;;;;;;;;;;;;;;;;7337002;40;1348;-23
2021/04/28 12:00:31;;;;;;;;;;;;;;;;;;7317991;40;1701;-24
2021/04/28 12:05:51;;;;;;;;;;;;;;;;;;7316972;40;1036;-24
2021/04/28 12:11:16;;;;;;;;;;;;;;;;;;7315948;40;1312;-24
2021/04/28 12:16:40;;;;;;;;;;;;;;;;;;7317655;40;1209;-23
2021/04/28 12:22:05;;;;;;;;;;;;;;;;;;7317921;40;1938;-24
2021/04/28 12:27:27;;;;;;;;;;;;;;;;;;7317581;40;1362;-23
2021/04/28 12:32:48;;;;;;;;;;;;;;;;;;7317624;40;1838;-23
2021/04/28 12:38:12;;;;;;;;;;;;;;;;;;7336634;40;1181;-24
2021/04/28 12:43:39;;;;;;;;;;;;;;;;;;7337884;40;1880;-24
2021/04/28 12:49:01;;;;;;;;;;;;;;;;;;7337737;40;1100;-24
2021/04/28 12:54:26;;;;;;;;;;;;;;;;;;7322291;40;1110;-24
2021/04/28 13:00:03;;;;;;;;;;;;;;;;;;7316897;40;1083;-23
2021/04/28 13:05:30;;;;;;;;;;;;;;;;;;7316776;40;1873;-24
2021/04/28 13:11:00;;;;;;;;;;;;;;;;;;7317225;40;1633;-24
2021/04/28 13:16:41;;;;;;;;;;;;;;;;;;7317234;40;1449;-24
2021/04/28 13:22:08;;;;;;;;;;;;;;;;;;7309124;40;1885;-25
2021/04/28 13:27:28;;;;;;;;;;;;;;;;;;7334327;40;1457;-24
2021/04/28 13:32:55;;;;;;;;;;;;;;;;;;7337534;40;1156;-24
2021/04/28 13:38:44;;;;;;;;;;;;;;;;;;7337013;40;1476;-23
2021/04/28 13:44:06;;;;;;;;;;;;;;;;;;7336401;40;1937;-22
2021/04/28 13:49:27;;;;;;;;;;;;;;;;;;7080446;40;10001479;-24
2021/04/28 13:54:47;;;;;;;;;;;;;;;;;;7332935;40;1388;-24
2021/04/28 14:00:09;;;;;;;;;;;;;;;;;;7332199;40;1089;-24
2021/04/28 14:05:32;;;;;;;;;;;;;;;;;;7332635;40;1875;-24
2021/04/28 14:10:52;;;;;;;;;;;;;;;;;;7331024;40;1320;-23
2021/04/28 14:16:13;;;;;;;;;;;;;;;;;;7331711;40;1189;-24
2021/04/28 14:21:34;;;;;;;;;;;;;;;;;;7325583;40;1878;-24
2021/04/28 14:26:54;;;;;;;;;;;;;;;;;;7326605;40;1206;-23
2021/04/28 14:32:15;;;;;;;;;;;;;;;;;;7334064;40;1310;-24
2021/04/28 14:37:35;;;;;;;;;;;;;;;;;;7319657;40;1903;-24
2021/04/28 14:43:10;;;;;;;;;;;;;;;;;;7318843;40;1879;-23
2021/04/28 14:48:30;;;;;;;;;;;;;;;;;;7310941;40;1086;-21
2021/04/28 14:53:51;;;;;;;;;;;;;;;;;;7319376;40;996;-24
2021/04/28 14:59:11;;;;;;;;;;;;;;;;;;7339629;40;1048;-24
2021/04/28 15:04:46;;;;;;;;;;;;;;;;;;7345411;40;1882;-23
2021/04/28 15:10:07;;;;;;;;;;;;;;;;;;7344231;40;1172;-24
2021/04/28 15:15:27;;;;;;;;;;;;;;;;;;7339765;40;985;-23
2021/04/28 15:20:48;;;;;;;;;;;;;;;;;;7337907;40;1378;-21
2021/04/28 15:26:16;;;;;;;;;;;;;;;;;;7333540;40;996;-21
2021/04/28 15:31:37;;;;;;;;;;;;;;;;;;7318839;40;1268;-22
2021/04/28 15:36:57;;;;;;;;;;;;;;;;;;7319076;40;981;-23
2021/04/28 15:42:32;;;;;;;;;;;;;;;;;;7325112;40;1960;-22
2021/04/28 15:47:53;;;;;;;;;;;;;;;;;;7359267;40;1032;-23
2021/04/28 15:53:13;;;;;;;;;;;;;;;;;;7340343;40;1292;-21
2021/04/28 15:58:33;;;;;;;;;;;;;;;;;;7337909;40;1560;-23
2021/04/28 16:03:54;;;;;;;;;;;;;;;;;;6700233;40;10001062;-23
2021/04/28 16:09:14;;;;;;;;;;;;;;;;;;7325139;40;1052;-23
2021/04/28 16:14:35;;;;;;;;;;;;;;;;;;7318451;40;974;-23
2021/04/28 16:20:10;;;;;;;;;;;;;;;;;;7318012;40;1350;-22
2021/04/28 16:25:31;;;;;;;;;;;;;;;;;;7316478;40;1944;-23
2021/04/28 16:31:05;;;;;;;;;;;;;;;;;;7317865;40;1256;-25
2021/04/28 16:36:26;;;;;;;;;;;;;;;;;;7327627;40;1409;-24
2021/04/28 16:41:46;;;;;;;;;;;;;;;;;;7338539;40;1932;-25
2021/04/28 16:47:08;;;;;;;;;;;;;;;;;;7324158;40;1124;-25
2021/04/28 16:52:29;;;;;;;;;;;;;;;;;;7331882;40;1190;-27
2021/04/28 16:57:49;;;;;;;;;;;;;;;;;;7318070;40;1018;-26
2021/04/28 17:03:10;;;;;;;;;;;;;;;;;;7318354;40;1878;-26
2021/04/28 17:08:31;;;;;;;;;;;;;;;;;;7323994;40;1095;-26
2021/04/28 17:13:51;;;;;;;;;;;;;;;;;;7338008;40;1021;-26
2021/04/28 17:19:13;;;;;;;;;;;;;;;;;;7335763;40;1328;-26
2021/04/28 17:24:34;;;;;;;;;;;;;;;;;;7338103;40;1871;-27
2021/04/28 17:30:09;;;;;;;;;;;;;;;;;;7337662;40;1086;-26
2021/04/28 17:35:30;;;;;;;;;;;;;;;;;;7329390;40;1020;-26
2021/04/28 17:40:50;;;;;;;;;;;;;;;;;;7337898;40;977;-25
2021/04/28 17:46:25;;;;;;;;;;;;;;;;;;7336807;40;1008;-24
2021/04/28 17:51:46;;;;;;;;;;;;;;;;;;7336029;40;1061;-25
2021/04/28 17:57:20;;;;;;;;;;;;;;;;;;7337802;40;1050;-25
2021/04/28 18:02:55;;;;;;;;;;;;;;;;;;7337460;40;1944;-25
2021/04/28 18:08:29;;;;;;;;;;;;;;;;;;7089857;40;10000369;-25
2021/04/28 18:13:50;;;;;;;;;;;;;;;;;;7334246;40;928;-25
2021/04/28 18:19:10;;;;;;;;;;;;;;;;;;7334073;40;1562;-25
2021/04/28 18:24:31;;;;;;;;;;;;;;;;;;7334465;40;1878;-25
2021/04/28 18:29:51;;;;;;;;;;;;;;;;;;7333555;40;1225;-25
2021/04/28 18:35:12;;;;;;;;;;;;;;;;;;7330014;40;997;-25
2021/04/28 18:40:47;;;;;;;;;;;;;;;;;;7306060;40;1301;-26
2021/04/28 18:46:08;;;;;;;;;;;;;;;;;;7334004;40;1910;-25
2021/04/28 18:51:28;;;;;;;;;;;;;;;;;;7333684;40;998;-24
2021/04/28 18:56:48;;;;;;;;;;;;;;;;;;7333869;40;993;-25
2021/04/28 19:02:08;;;;;;;;;;;;;;;;;;7333890;40;1935;-23
2021/04/28 19:07:29;;;;;;;;;;;;;;;;;;7324698;40;1321;-25
2021/04/28 19:12:50;;;;;;;;;;;;;;;;;;7324914;40;2576;-25
2021/04/28 19:18:11;;;;;;;;;;;;;;;;;;7328976;40;1459;-25
2021/04/28 19:23:32;;;;;;;;;;;;;;;;;;7335437;40;1931;-25
2021/04/28 19:28:52;;;;;;;;;;;;;;;;;;7320952;40;1194;-25
2021/04/28 19:34:13;;;;;;;;;;;;;;;;;;7327607;40;1342;-26
2021/04/28 19:39:34;;;;;;;;;;;;;;;;;;7292807;40;9994;-28
2021/04/28 19:44:55;;;;;;;;;;;;;;;;;;7321689;40;1878;-25
2021/04/28 19:50:15;;;;;;;;;;;;;;;;;;7298504;40;1500;-25
2021/04/28 19:55:36;;;;;;;;;;;;;;;;;;7295315;40;1055;-25
2021/04/28 20:00:56;;;;;;;;;;;;;;;;;;7295107;40;1034;-25
2021/04/28 20:06:17;;;;;;;;;;;;;;;;;;7295090;40;1883;-25
2021/04/28 20:11:38;;;;;;;;;;;;;;;;;;7301936;40;1092;-25
2021/04/28 20:16:58;;;;;;;;;;;;;;;;;;7294129;40;1278;-25
2021/04/28 20:22:18;;;;;;;;;;;;;;;;;;7294592;40;1924;-25
2021/04/28 20:27:39;;;;;;;;;;;;;;;;;;7294341;40;2069;-24
2021/04/28 20:32:59;;;;;;;;;;;;;;;;;;7294110;40;1157;-25
2021/04/28 20:38:20;;;;;;;;;;;;;;;;;;7310911;40;1008;-25
2021/04/28 20:43:40;;;;;;;;;;;;;;;;;;7318360;40;1867;-24
2021/04/28 20:49:01;;;;;;;;;;;;;;;;;;7318417;40;937;-24
2021/04/28 20:54:22;;;;;;;;;;;;;;;;;;7318414;40;1036;-25
2021/04/28 20:59:56;;;;;;;;;;;;;;;;;;7317705;40;1316;-25
2021/04/28 21:05:18;;;;;;;;;;;;;;;;;;7317967;40;1873;-25
2021/04/28 21:10:39;;;;;;;;;;;;;;;;;;7311775;40;1189;-25
2021/04/28 21:15:59;;;;;;;;;;;;;;;;;;7298074;40;1202;-25
2021/04/28 21:21:20;;;;;;;;;;;;;;;;;;7297951;40;1481;-25
2021/04/28 21:26:41;;;;;;;;;;;;;;;;;;7303094;40;1234;-25
2021/04/28 21:32:03;;;;;;;;;;;;;;;;;;7315463;40;1017;-25
2021/04/28 21:37:23;;;;;;;;;;;;;;;;;;7317874;40;1075;-25
2021/04/28 21:42:45;;;;;;;;;;;;;;;;;;7317863;40;1902;-25
2021/04/28 21:48:05;;;;;;;;;;;;;;;;;;7317113;40;1004;-23
2021/04/28 21:53:26;;;;;;;;;;;;;;;;;;7315459;40;1534;-25
2021/04/28 21:58:46;;;;;;;;;;;;;;;;;;7322607;40;1100;-25
2021/04/28 22:04:07;;;;;;;;;;;;;;;;;;7317673;40;1962;-25
2021/04/28 22:09:28;;;;;;;;;;;;;;;;;;7311665;40;1046;-25
2021/04/28 22:14:48;;;;;;;;;;;;;;;;;;7295209;40;1301;-24
2021/04/28 22:20:23;;;;;;;;;;;;;;;;;;7296451;40;1564;-25
2021/04/28 22:25:44;;;;;;;;;;;;;;;;;;7294672;40;1882;-25
2021/04/28 22:31:07;;;;;;;;;;;;;;;;;;7296501;40;1255;-25
2021/04/28 22:36:41;;;;;;;;;;;;;;;;;;7301035;40;1092;-26
2021/04/28 22:42:02;;;;;;;;;;;;;;;;;;7322040;40;1931;-25
2021/04/28 22:47:23;;;;;;;;;;;;;;;;;;7317458;40;1082;-25
2021/04/28 22:52:44;;;;;;;;;;;;;;;;;;7341800;40;1624;-25
2021/04/28 22:58:05;;;;;;;;;;;;;;;;;;7338562;40;1164;-24
2021/04/28 23:03:40;;;;;;;;;;;;;;;;;;7339751;40;1889;-25
2021/04/28 23:09:00;;;;;;;;;;;;;;;;;;6832753;40;10000876;-22
2021/04/28 23:14:20;;;;;;;;;;;;;;;;;;7318007;40;1071;-25
2021/04/28 23:19:42;;;;;;;;;;;;;;;;;;7317188;40;1493;-25
2021/04/28 23:25:03;;;;;;;;;;;;;;;;;;7308405;40;1943;-24
2021/04/28 23:30:23;;;;;;;;;;;;;;;;;;7304209;40;1093;-24
2021/04/28 23:35:44;;;;;;;;;;;;;;;;;;7318871;40;1092;-25
2021/04/28 23:41:18;;;;;;;;;;;;;;;;;;7318826;40;1225;-25
2021/04/28 23:46:39;;;;;;;;;;;;;;;;;;7318775;40;1875;-24
2021/04/28 23:52:00;;;;;;;;;;;;;;;;;;7316664;40;1979;-25
2021/04/28 23:57:21;;;;;;;;;;;;;;;;;;7318824;40;1219;-25
